sensor_id;sensor_type;location;lat;lon;timestamp;P1;durP1;ratioP1;P2;durP2;ratioP2
77612;SDS011;66777;52.282;5.960;2023-03-07T00:00:50;28.10;;;9.25;;
77612;SDS011;66777;52.282;5.960;2023-03-07T00:03:16;24.02;;;8.57;;
77612;SDS011;66777;52.282;5.960;2023-03-07T00:05:44;19.92;;;7.15;;
77612;SDS011;66777;52.282;5.960;2023-03-07T00:08:10;16.23;;;5.78;;
77612;SDS011;66777;52.282;5.960;2023-03-07T00:10:37;15.48;;;5.80;;
77612;SDS011;66777;52.282;5.960;2023-03-07T00:13:02;16.13;;;5.80;;
77612;SDS011;66777;52.282;5.960;2023-03-07T00:15:28;12.57;;;4.75;;
77612;SDS011;66777;52.282;5.960;2023-03-07T00:17:55;16.75;;;5.35;;
77612;SDS011;66777;52.282;5.960;2023-03-07T00:20:21;13.50;;;4.93;;
77612;SDS011;66777;52.282;5.960;2023-03-07T00:22:47;13.20;;;5.15;;
77612;SDS011;66777;52.282;5.960;2023-03-07T00:25:13;14.45;;;5.95;;
77612;SDS011;66777;52.282;5.960;2023-03-07T00:27:39;12.15;;;5.15;;
77612;SDS011;66777;52.282;5.960;2023-03-07T00:30:05;15.40;;;5.28;;
77612;SDS011;66777;52.282;5.960;2023-03-07T00:32:34;18.42;;;6.57;;
77612;SDS011;66777;52.282;5.960;2023-03-07T00:35:00;20.20;;;5.80;;
77612;SDS011;66777;52.282;5.960;2023-03-07T00:37:26;17.75;;;5.70;;
77612;SDS011;66777;52.282;5.960;2023-03-07T00:39:54;12.57;;;5.05;;
77612;SDS011;66777;52.282;5.960;2023-03-07T00:42:19;12.35;;;4.40;;
77612;SDS011;66777;52.282;5.960;2023-03-07T00:44:45;13.52;;;4.65;;
77612;SDS011;66777;52.282;5.960;2023-03-07T00:47:11;12.25;;;4.93;;
77612;SDS011;66777;52.282;5.960;2023-03-07T00:49:37;10.35;;;4.15;;
77612;SDS011;66777;52.282;5.960;2023-03-07T00:52:03;10.82;;;3.60;;
77612;SDS011;66777;52.282;5.960;2023-03-07T00:54:29;9.70;;;4.15;;
77612;SDS011;66777;52.282;5.960;2023-03-07T00:56:55;11.65;;;4.05;;
77612;SDS011;66777;52.282;5.960;2023-03-07T00:59:21;11.88;;;4.38;;
77612;SDS011;66777;52.282;5.960;2023-03-07T01:01:46;10.82;;;4.20;;
77612;SDS011;66777;52.282;5.960;2023-03-07T01:04:12;10.88;;;3.88;;
77612;SDS011;66777;52.282;5.960;2023-03-07T01:06:38;10.70;;;4.25;;
77612;SDS011;66777;52.282;5.960;2023-03-07T01:09:05;16.40;;;4.38;;
77612;SDS011;66777;52.282;5.960;2023-03-07T01:11:32;9.80;;;3.33;;
77612;SDS011;66777;52.282;5.960;2023-03-07T01:13:59;15.98;;;5.13;;
77612;SDS011;66777;52.282;5.960;2023-03-07T01:16:31;12.35;;;4.22;;
77612;SDS011;66777;52.282;5.960;2023-03-07T01:18:59;17.60;;;6.00;;
77612;SDS011;66777;52.282;5.960;2023-03-07T01:21:27;19.30;;;6.90;;
77612;SDS011;66777;52.282;5.960;2023-03-07T01:23:54;19.85;;;6.15;;
77612;SDS011;66777;52.282;5.960;2023-03-07T01:26:24;15.70;;;6.45;;
77612;SDS011;66777;52.282;5.960;2023-03-07T01:28:53;22.35;;;7.05;;
77612;SDS011;66777;52.282;5.960;2023-03-07T01:31:21;15.85;;;6.53;;
77612;SDS011;66777;52.282;5.960;2023-03-07T01:33:48;17.15;;;5.88;;
77612;SDS011;66777;52.282;5.960;2023-03-07T01:36:16;15.23;;;5.85;;
77612;SDS011;66777;52.282;5.960;2023-03-07T01:38:45;14.95;;;5.88;;
77612;SDS011;66777;52.282;5.960;2023-03-07T01:41:12;15.27;;;5.82;;
77612;SDS011;66777;52.282;5.960;2023-03-07T01:43:38;15.23;;;5.65;;
77612;SDS011;66777;52.282;5.960;2023-03-07T01:48:49;12.52;;;4.75;;
77612;SDS011;66777;52.282;5.960;2023-03-07T01:51:20;11.55;;;4.10;;
77612;SDS011;66777;52.282;5.960;2023-03-07T01:53:49;14.13;;;4.43;;
77612;SDS011;66777;52.282;5.960;2023-03-07T01:56:17;28.05;;;5.32;;
77612;SDS011;66777;52.282;5.960;2023-03-07T01:58:45;10.55;;;4.10;;
77612;SDS011;66777;52.282;5.960;2023-03-07T02:01:11;10.45;;;3.90;;
77612;SDS011;66777;52.282;5.960;2023-03-07T02:06:46;10.68;;;3.53;;
77612;SDS011;66777;52.282;5.960;2023-03-07T02:09:14;14.23;;;4.95;;
77612;SDS011;66777;52.282;5.960;2023-03-07T02:11:43;10.85;;;3.65;;
77612;SDS011;66777;52.282;5.960;2023-03-07T02:14:10;12.05;;;4.32;;
77612;SDS011;66777;52.282;5.960;2023-03-07T02:16:36;11.57;;;4.15;;
77612;SDS011;66777;52.282;5.960;2023-03-07T02:19:03;10.07;;;2.85;;
77612;SDS011;66777;52.282;5.960;2023-03-07T02:21:42;7.07;;;2.53;;
77612;SDS011;66777;52.282;5.960;2023-03-07T02:24:31;11.80;;;2.90;;
77612;SDS011;66777;52.282;5.960;2023-03-07T02:27:13;11.38;;;2.85;;
77612;SDS011;66777;52.282;5.960;2023-03-07T02:29:39;9.60;;;3.03;;
77612;SDS011;66777;52.282;5.960;2023-03-07T02:32:06;8.80;;;2.63;;
77612;SDS011;66777;52.282;5.960;2023-03-07T02:34:33;9.35;;;2.80;;
77612;SDS011;66777;52.282;5.960;2023-03-07T02:39:32;8.82;;;2.50;;
77612;SDS011;66777;52.282;5.960;2023-03-07T02:42:03;9.00;;;2.45;;
77612;SDS011;66777;52.282;5.960;2023-03-07T02:44:33;10.88;;;3.03;;
77612;SDS011;66777;52.282;5.960;2023-03-07T02:46:59;6.35;;;3.00;;
77612;SDS011;66777;52.282;5.960;2023-03-07T02:49:24;8.77;;;2.75;;
77612;SDS011;66777;52.282;5.960;2023-03-07T02:51:50;9.40;;;3.42;;
77612;SDS011;66777;52.282;5.960;2023-03-07T02:54:21;8.77;;;2.88;;
77612;SDS011;66777;52.282;5.960;2023-03-07T02:56:49;8.43;;;2.58;;
77612;SDS011;66777;52.282;5.960;2023-03-07T02:59:15;13.65;;;3.35;;
77612;SDS011;66777;52.282;5.960;2023-03-07T03:01:41;10.68;;;2.55;;
77612;SDS011;66777;52.282;5.960;2023-03-07T03:04:07;6.70;;;2.38;;
77612;SDS011;66777;52.282;5.960;2023-03-07T03:06:33;7.57;;;2.33;;
77612;SDS011;66777;52.282;5.960;2023-03-07T03:09:00;10.27;;;2.45;;
77612;SDS011;66777;52.282;5.960;2023-03-07T03:11:26;6.18;;;2.50;;
77612;SDS011;66777;52.282;5.960;2023-03-07T03:13:54;9.40;;;2.50;;
77612;SDS011;66777;52.282;5.960;2023-03-07T03:16:20;9.55;;;3.10;;
77612;SDS011;66777;52.282;5.960;2023-03-07T03:18:46;9.02;;;3.20;;
77612;SDS011;66777;52.282;5.960;2023-03-07T03:21:11;6.82;;;2.53;;
77612;SDS011;66777;52.282;5.960;2023-03-07T03:23:39;7.57;;;2.28;;
77612;SDS011;66777;52.282;5.960;2023-03-07T03:26:05;10.60;;;2.55;;
77612;SDS011;66777;52.282;5.960;2023-03-07T03:28:35;9.23;;;2.50;;
77612;SDS011;66777;52.282;5.960;2023-03-07T03:31:03;12.82;;;2.35;;
77612;SDS011;66777;52.282;5.960;2023-03-07T03:33:31;9.73;;;2.80;;
77612;SDS011;66777;52.282;5.960;2023-03-07T03:35:58;8.68;;;2.28;;
77612;SDS011;66777;52.282;5.960;2023-03-07T03:38:29;9.80;;;2.78;;
77612;SDS011;66777;52.282;5.960;2023-03-07T03:40:55;9.10;;;2.53;;
77612;SDS011;66777;52.282;5.960;2023-03-07T03:43:21;7.40;;;2.53;;
77612;SDS011;66777;52.282;5.960;2023-03-07T03:45:53;9.60;;;2.60;;
77612;SDS011;66777;52.282;5.960;2023-03-07T03:48:20;9.25;;;2.17;;
77612;SDS011;66777;52.282;5.960;2023-03-07T03:50:47;8.70;;;2.55;;
77612;SDS011;66777;52.282;5.960;2023-03-07T03:53:13;7.65;;;1.80;;
77612;SDS011;66777;52.282;5.960;2023-03-07T03:55:39;8.13;;;2.22;;
77612;SDS011;66777;52.282;5.960;2023-03-07T03:58:05;12.55;;;2.53;;
77612;SDS011;66777;52.282;5.960;2023-03-07T04:00:31;6.82;;;2.30;;
77612;SDS011;66777;52.282;5.960;2023-03-07T04:02:57;9.25;;;2.35;;
77612;SDS011;66777;52.282;5.960;2023-03-07T04:05:23;15.45;;;3.30;;
77612;SDS011;66777;52.282;5.960;2023-03-07T04:07:49;5.45;;;2.15;;
77612;SDS011;66777;52.282;5.960;2023-03-07T04:10:15;9.27;;;2.35;;
77612;SDS011;66777;52.282;5.960;2023-03-07T04:12:41;5.03;;;2.17;;
77612;SDS011;66777;52.282;5.960;2023-03-07T04:15:08;10.35;;;2.13;;
77612;SDS011;66777;52.282;5.960;2023-03-07T04:17:34;6.88;;;1.80;;
77612;SDS011;66777;52.282;5.960;2023-03-07T04:20:00;6.70;;;1.98;;
77612;SDS011;66777;52.282;5.960;2023-03-07T04:22:25;10.27;;;2.25;;
77612;SDS011;66777;52.282;5.960;2023-03-07T04:24:51;10.02;;;2.65;;
77612;SDS011;66777;52.282;5.960;2023-03-07T04:27:17;7.13;;;2.17;;
77612;SDS011;66777;52.282;5.960;2023-03-07T04:29:42;6.55;;;2.42;;
77612;SDS011;66777;52.282;5.960;2023-03-07T04:32:08;8.18;;;2.00;;
77612;SDS011;66777;52.282;5.960;2023-03-07T04:34:34;8.02;;;2.78;;
77612;SDS011;66777;52.282;5.960;2023-03-07T04:37:00;9.50;;;2.40;;
77612;SDS011;66777;52.282;5.960;2023-03-07T04:39:26;11.15;;;2.33;;
77612;SDS011;66777;52.282;5.960;2023-03-07T04:41:52;7.55;;;3.15;;
77612;SDS011;66777;52.282;5.960;2023-03-07T04:44:17;9.00;;;2.45;;
77612;SDS011;66777;52.282;5.960;2023-03-07T04:46:45;6.30;;;2.10;;
77612;SDS011;66777;52.282;5.960;2023-03-07T04:49:11;9.23;;;2.60;;
77612;SDS011;66777;52.282;5.960;2023-03-07T04:51:37;12.23;;;3.17;;
77612;SDS011;66777;52.282;5.960;2023-03-07T04:54:02;7.63;;;3.00;;
77612;SDS011;66777;52.282;5.960;2023-03-07T04:56:28;9.15;;;2.70;;
77612;SDS011;66777;52.282;5.960;2023-03-07T04:58:54;8.95;;;2.80;;
77612;SDS011;66777;52.282;5.960;2023-03-07T05:01:20;7.53;;;2.25;;
77612;SDS011;66777;52.282;5.960;2023-03-07T05:03:45;8.13;;;2.38;;
77612;SDS011;66777;52.282;5.960;2023-03-07T05:06:12;7.68;;;2.25;;
77612;SDS011;66777;52.282;5.960;2023-03-07T05:08:39;6.28;;;2.13;;
77612;SDS011;66777;52.282;5.960;2023-03-07T05:11:06;6.22;;;2.22;;
77612;SDS011;66777;52.282;5.960;2023-03-07T05:13:32;11.57;;;2.40;;
77612;SDS011;66777;52.282;5.960;2023-03-07T05:15:59;7.00;;;2.58;;
77612;SDS011;66777;52.282;5.960;2023-03-07T05:18:26;8.35;;;2.40;;
77612;SDS011;66777;52.282;5.960;2023-03-07T05:20:52;10.68;;;3.05;;
77612;SDS011;66777;52.282;5.960;2023-03-07T05:23:18;6.80;;;2.63;;
77612;SDS011;66777;52.282;5.960;2023-03-07T05:25:44;9.95;;;2.35;;
77612;SDS011;66777;52.282;5.960;2023-03-07T05:28:14;5.75;;;1.80;;
77612;SDS011;66777;52.282;5.960;2023-03-07T05:30:41;11.02;;;2.75;;
77612;SDS011;66777;52.282;5.960;2023-03-07T05:33:10;5.78;;;2.22;;
77612;SDS011;66777;52.282;5.960;2023-03-07T05:35:36;8.20;;;1.95;;
77612;SDS011;66777;52.282;5.960;2023-03-07T05:38:03;6.45;;;1.73;;
77612;SDS011;66777;52.282;5.960;2023-03-07T05:40:29;5.72;;;1.67;;
77612;SDS011;66777;52.282;5.960;2023-03-07T05:42:55;3.58;;;1.60;;
77612;SDS011;66777;52.282;5.960;2023-03-07T05:45:20;3.13;;;1.38;;
77612;SDS011;66777;52.282;5.960;2023-03-07T05:47:46;4.68;;;2.10;;
77612;SDS011;66777;52.282;5.960;2023-03-07T05:50:12;3.15;;;1.40;;
77612;SDS011;66777;52.282;5.960;2023-03-07T05:52:38;7.28;;;1.75;;
77612;SDS011;66777;52.282;5.960;2023-03-07T05:55:04;3.65;;;1.52;;
77612;SDS011;66777;52.282;5.960;2023-03-07T05:57:30;4.43;;;1.48;;
77612;SDS011;66777;52.282;5.960;2023-03-07T05:59:57;5.00;;;1.75;;
77612;SDS011;66777;52.282;5.960;2023-03-07T06:02:24;5.85;;;1.60;;
77612;SDS011;66777;52.282;5.960;2023-03-07T06:04:50;5.10;;;1.55;;
77612;SDS011;66777;52.282;5.960;2023-03-07T06:07:16;6.57;;;1.65;;
77612;SDS011;66777;52.282;5.960;2023-03-07T06:09:42;5.18;;;1.77;;
77612;SDS011;66777;52.282;5.960;2023-03-07T06:12:09;4.65;;;1.55;;
77612;SDS011;66777;52.282;5.960;2023-03-07T06:14:35;3.10;;;1.48;;
77612;SDS011;66777;52.282;5.960;2023-03-07T06:17:04;3.63;;;1.23;;
77612;SDS011;66777;52.282;5.960;2023-03-07T06:19:30;4.65;;;1.70;;
77612;SDS011;66777;52.282;5.960;2023-03-07T06:21:56;3.45;;;1.35;;
77612;SDS011;66777;52.282;5.960;2023-03-07T06:24:22;3.97;;;1.52;;
77612;SDS011;66777;52.282;5.960;2023-03-07T06:26:48;5.57;;;1.63;;
77612;SDS011;66777;52.282;5.960;2023-03-07T06:29:14;10.98;;;2.15;;
77612;SDS011;66777;52.282;5.960;2023-03-07T06:31:40;2.17;;;1.40;;
77612;SDS011;66777;52.282;5.960;2023-03-07T06:34:05;3.75;;;1.40;;
77612;SDS011;66777;52.282;5.960;2023-03-07T06:36:32;4.50;;;1.33;;
77612;SDS011;66777;52.282;5.960;2023-03-07T06:38:58;7.80;;;1.50;;
77612;SDS011;66777;52.282;5.960;2023-03-07T06:41:24;2.42;;;1.55;;
77612;SDS011;66777;52.282;5.960;2023-03-07T06:43:50;5.55;;;1.60;;
77612;SDS011;66777;52.282;5.960;2023-03-07T06:46:17;3.38;;;1.42;;
77612;SDS011;66777;52.282;5.960;2023-03-07T06:48:45;3.90;;;1.25;;
77612;SDS011;66777;52.282;5.960;2023-03-07T06:51:13;3.85;;;1.10;;
77612;SDS011;66777;52.282;5.960;2023-03-07T06:53:39;2.72;;;1.33;;
77612;SDS011;66777;52.282;5.960;2023-03-07T06:56:05;3.20;;;1.33;;
77612;SDS011;66777;52.282;5.960;2023-03-07T06:58:31;2.85;;;1.35;;
77612;SDS011;66777;52.282;5.960;2023-03-07T07:00:57;3.53;;;1.52;;
77612;SDS011;66777;52.282;5.960;2023-03-07T07:03:24;4.10;;;1.75;;
77612;SDS011;66777;52.282;5.960;2023-03-07T07:05:50;7.93;;;1.63;;
77612;SDS011;66777;52.282;5.960;2023-03-07T07:08:16;3.30;;;1.38;;
77612;SDS011;66777;52.282;5.960;2023-03-07T07:10:42;5.40;;;1.63;;
77612;SDS011;66777;52.282;5.960;2023-03-07T07:13:08;10.05;;;2.00;;
77612;SDS011;66777;52.282;5.960;2023-03-07T07:15:36;4.97;;;1.75;;
77612;SDS011;66777;52.282;5.960;2023-03-07T07:18:03;7.95;;;1.58;;
77612;SDS011;66777;52.282;5.960;2023-03-07T07:20:28;4.93;;;1.20;;
77612;SDS011;66777;52.282;5.960;2023-03-07T07:22:54;4.38;;;1.60;;
77612;SDS011;66777;52.282;5.960;2023-03-07T07:25:20;5.45;;;1.73;;
77612;SDS011;66777;52.282;5.960;2023-03-07T07:27:46;6.20;;;1.52;;
77612;SDS011;66777;52.282;5.960;2023-03-07T07:30:12;3.78;;;1.38;;
77612;SDS011;66777;52.282;5.960;2023-03-07T07:32:38;4.47;;;1.52;;
77612;SDS011;66777;52.282;5.960;2023-03-07T07:35:04;2.72;;;1.23;;
77612;SDS011;66777;52.282;5.960;2023-03-07T07:37:30;4.40;;;1.67;;
77612;SDS011;66777;52.282;5.960;2023-03-07T07:39:56;3.60;;;1.52;;
77612;SDS011;66777;52.282;5.960;2023-03-07T07:42:22;2.70;;;1.23;;
77612;SDS011;66777;52.282;5.960;2023-03-07T07:44:47;2.28;;;1.38;;
77612;SDS011;66777;52.282;5.960;2023-03-07T07:47:13;5.30;;;1.80;;
77612;SDS011;66777;52.282;5.960;2023-03-07T07:49:39;3.17;;;1.55;;
77612;SDS011;66777;52.282;5.960;2023-03-07T07:52:05;5.82;;;1.35;;
77612;SDS011;66777;52.282;5.960;2023-03-07T07:54:31;3.97;;;1.65;;
77612;SDS011;66777;52.282;5.960;2023-03-07T07:56:57;20.98;;;8.27;;
77612;SDS011;66777;52.282;5.960;2023-03-07T07:59:23;15.35;;;5.53;;
77612;SDS011;66777;52.282;5.960;2023-03-07T08:01:49;5.65;;;1.27;;
77612;SDS011;66777;52.282;5.960;2023-03-07T08:04:15;4.03;;;1.58;;
77612;SDS011;66777;52.282;5.960;2023-03-07T08:06:41;4.72;;;1.65;;
77612;SDS011;66777;52.282;5.960;2023-03-07T08:09:08;4.07;;;1.38;;
77612;SDS011;66777;52.282;5.960;2023-03-07T08:11:34;9.52;;;1.90;;
77612;SDS011;66777;52.282;5.960;2023-03-07T08:14:00;7.18;;;1.75;;
77612;SDS011;66777;52.282;5.960;2023-03-07T08:16:27;3.92;;;1.50;;
77612;SDS011;66777;52.282;5.960;2023-03-07T08:18:54;6.18;;;1.60;;
77612;SDS011;66777;52.282;5.960;2023-03-07T08:21:21;3.67;;;1.40;;
77612;SDS011;66777;52.282;5.960;2023-03-07T08:23:48;9.68;;;2.40;;
77612;SDS011;66777;52.282;5.960;2023-03-07T08:26:14;6.13;;;1.98;;
77612;SDS011;66777;52.282;5.960;2023-03-07T08:28:41;19.00;;;6.20;;
77612;SDS011;66777;52.282;5.960;2023-03-07T08:33:46;6.32;;;2.08;;
77612;SDS011;66777;52.282;5.960;2023-03-07T08:36:12;4.78;;;1.52;;
77612;SDS011;66777;52.282;5.960;2023-03-07T08:38:38;4.35;;;1.88;;
77612;SDS011;66777;52.282;5.960;2023-03-07T08:41:05;4.97;;;1.83;;
77612;SDS011;66777;52.282;5.960;2023-03-07T08:43:33;5.53;;;1.98;;
77612;SDS011;66777;52.282;5.960;2023-03-07T08:46:00;3.90;;;1.65;;
77612;SDS011;66777;52.282;5.960;2023-03-07T08:48:27;3.50;;;1.35;;
77612;SDS011;66777;52.282;5.960;2023-03-07T08:50:55;6.13;;;1.65;;
77612;SDS011;66777;52.282;5.960;2023-03-07T08:53:21;5.20;;;1.67;;
77612;SDS011;66777;52.282;5.960;2023-03-07T08:55:47;6.00;;;1.83;;
77612;SDS011;66777;52.282;5.960;2023-03-07T08:58:14;4.75;;;2.05;;
77612;SDS011;66777;52.282;5.960;2023-03-07T09:00:40;5.88;;;2.58;;
77612;SDS011;66777;52.282;5.960;2023-03-07T09:03:06;3.85;;;1.83;;
77612;SDS011;66777;52.282;5.960;2023-03-07T09:05:35;5.50;;;1.63;;
77612;SDS011;66777;52.282;5.960;2023-03-07T09:08:03;4.00;;;1.67;;
77612;SDS011;66777;52.282;5.960;2023-03-07T09:10:31;4.55;;;1.83;;
77612;SDS011;66777;52.282;5.960;2023-03-07T09:12:58;5.30;;;2.08;;
77612;SDS011;66777;52.282;5.960;2023-03-07T09:15:24;6.45;;;2.25;;
77612;SDS011;66777;52.282;5.960;2023-03-07T09:17:51;5.63;;;2.25;;
77612;SDS011;66777;52.282;5.960;2023-03-07T09:20:17;5.38;;;2.33;;
77612;SDS011;66777;52.282;5.960;2023-03-07T09:22:43;5.30;;;1.90;;
77612;SDS011;66777;52.282;5.960;2023-03-07T09:25:10;8.68;;;2.17;;
77612;SDS011;66777;52.282;5.960;2023-03-07T09:27:36;6.95;;;2.35;;
77612;SDS011;66777;52.282;5.960;2023-03-07T09:30:03;3.90;;;1.65;;
77612;SDS011;66777;52.282;5.960;2023-03-07T09:32:30;6.55;;;1.75;;
77612;SDS011;66777;52.282;5.960;2023-03-07T09:34:57;5.07;;;2.15;;
77612;SDS011;66777;52.282;5.960;2023-03-07T09:37:22;4.65;;;2.17;;
77612;SDS011;66777;52.282;5.960;2023-03-07T09:39:48;7.22;;;2.28;;
77612;SDS011;66777;52.282;5.960;2023-03-07T09:49:50;4.95;;;2.45;;
77612;SDS011;66777;52.282;5.960;2023-03-07T09:52:19;6.57;;;2.35;;
77612;SDS011;66777;52.282;5.960;2023-03-07T09:54:52;6.05;;;2.80;;
77612;SDS011;66777;52.282;5.960;2023-03-07T09:57:31;9.32;;;3.35;;
77612;SDS011;66777;52.282;5.960;2023-03-07T10:00:03;6.55;;;3.08;;
77612;SDS011;66777;52.282;5.960;2023-03-07T10:07:55;6.72;;;3.13;;
77612;SDS011;66777;52.282;5.960;2023-03-07T10:10:23;8.32;;;3.83;;
77612;SDS011;66777;52.282;5.960;2023-03-07T10:15:35;9.45;;;4.75;;
77612;SDS011;66777;52.282;5.960;2023-03-07T10:26:34;10.57;;;4.65;;
77612;SDS011;66777;52.282;5.960;2023-03-07T10:29:13;11.25;;;5.63;;
77612;SDS011;66777;52.282;5.960;2023-03-07T10:31:43;12.23;;;5.35;;
77612;SDS011;66777;52.282;5.960;2023-03-07T10:36:49;11.15;;;4.97;;
77612;SDS011;66777;52.282;5.960;2023-03-07T10:39:24;9.52;;;4.55;;
77612;SDS011;66777;52.282;5.960;2023-03-07T10:42:10;9.63;;;4.85;;
77612;SDS011;66777;52.282;5.960;2023-03-07T10:44:39;10.85;;;5.07;;
77612;SDS011;66777;52.282;5.960;2023-03-07T10:47:07;9.95;;;4.13;;
77612;SDS011;66777;52.282;5.960;2023-03-07T10:49:44;8.23;;;3.92;;
77612;SDS011;66777;52.282;5.960;2023-03-07T10:52:16;9.10;;;3.33;;
77612;SDS011;66777;52.282;5.960;2023-03-07T10:58:14;9.27;;;4.05;;
77612;SDS011;66777;52.282;5.960;2023-03-07T11:00:42;13.65;;;4.40;;
77612;SDS011;66777;52.282;5.960;2023-03-07T11:06:28;10.63;;;4.20;;
77612;SDS011;66777;52.282;5.960;2023-03-07T11:09:13;6.35;;;2.95;;
77612;SDS011;66777;52.282;5.960;2023-03-07T11:11:52;5.65;;;3.17;;
77612;SDS011;66777;52.282;5.960;2023-03-07T11:14:18;13.10;;;3.67;;
77612;SDS011;66777;52.282;5.960;2023-03-07T11:16:52;10.15;;;3.08;;
77612;SDS011;66777;52.282;5.960;2023-03-07T11:19:25;6.63;;;2.38;;
77612;SDS011;66777;52.282;5.960;2023-03-07T11:21:55;7.47;;;2.33;;
77612;SDS011;66777;52.282;5.960;2023-03-07T11:26:52;7.93;;;2.28;;
77612;SDS011;66777;52.282;5.960;2023-03-07T11:29:22;4.57;;;2.00;;
77612;SDS011;66777;52.282;5.960;2023-03-07T11:34:45;6.65;;;2.28;;
77612;SDS011;66777;52.282;5.960;2023-03-07T11:37:33;4.60;;;2.03;;
77612;SDS011;66777;52.282;5.960;2023-03-07T11:42:56;4.80;;;2.25;;
77612;SDS011;66777;52.282;5.960;2023-03-07T11:45:39;4.45;;;2.08;;
77612;SDS011;66777;52.282;5.960;2023-03-07T11:51:05;7.18;;;2.42;;
77612;SDS011;66777;52.282;5.960;2023-03-07T11:53:40;5.93;;;2.35;;
77612;SDS011;66777;52.282;5.960;2023-03-07T11:56:18;3.83;;;2.08;;
77612;SDS011;66777;52.282;5.960;2023-03-07T12:01:56;4.68;;;1.88;;
77612;SDS011;66777;52.282;5.960;2023-03-07T12:07:08;3.25;;;1.55;;
77612;SDS011;66777;52.282;5.960;2023-03-07T12:12:50;4.10;;;1.65;;
77612;SDS011;66777;52.282;5.960;2023-03-07T12:15:46;2.53;;;1.42;;
77612;SDS011;66777;52.282;5.960;2023-03-07T12:24:54;3.58;;;1.65;;
77612;SDS011;66777;52.282;5.960;2023-03-07T12:30:21;5.57;;;2.22;;
77612;SDS011;66777;52.282;5.960;2023-03-07T12:33:08;4.28;;;1.67;;
77612;SDS011;66777;52.282;5.960;2023-03-07T12:35:47;4.53;;;2.25;;
77612;SDS011;66777;52.282;5.960;2023-03-07T12:40:58;4.90;;;1.98;;
77612;SDS011;66777;52.282;5.960;2023-03-07T12:43:32;4.10;;;1.73;;
77612;SDS011;66777;52.282;5.960;2023-03-07T12:48:46;5.55;;;2.03;;
77612;SDS011;66777;52.282;5.960;2023-03-07T12:51:25;6.28;;;2.38;;
77612;SDS011;66777;52.282;5.960;2023-03-07T12:54:04;5.03;;;1.70;;
77612;SDS011;66777;52.282;5.960;2023-03-07T12:59:12;3.75;;;2.20;;
77612;SDS011;66777;52.282;5.960;2023-03-07T13:07:00;5.57;;;2.08;;
77612;SDS011;66777;52.282;5.960;2023-03-07T13:09:37;3.40;;;2.10;;
77612;SDS011;66777;52.282;5.960;2023-03-07T13:15:01;4.15;;;1.83;;
77612;SDS011;66777;52.282;5.960;2023-03-07T13:20:32;4.50;;;1.67;;
77612;SDS011;66777;52.282;5.960;2023-03-07T13:27:50;5.20;;;2.17;;
77612;SDS011;66777;52.282;5.960;2023-03-07T13:33:00;5.22;;;2.50;;
77612;SDS011;66777;52.282;5.960;2023-03-07T13:43:01;5.25;;;2.28;;
77612;SDS011;66777;52.282;5.960;2023-03-07T13:48:02;7.07;;;2.20;;
77612;SDS011;66777;52.282;5.960;2023-03-07T13:52:58;3.70;;;1.58;;
77612;SDS011;66777;52.282;5.960;2023-03-07T13:58:43;4.78;;;1.67;;
77612;SDS011;66777;52.282;5.960;2023-03-07T14:01:19;5.07;;;2.08;;
77612;SDS011;66777;52.282;5.960;2023-03-07T14:03:49;4.07;;;2.05;;
77612;SDS011;66777;52.282;5.960;2023-03-07T14:09:18;5.28;;;2.65;;
77612;SDS011;66777;52.282;5.960;2023-03-07T14:16:55;4.38;;;1.83;;
77612;SDS011;66777;52.282;5.960;2023-03-07T14:19:50;3.33;;;1.45;;
77612;SDS011;66777;52.282;5.960;2023-03-07T14:25:34;3.55;;;1.45;;
77612;SDS011;66777;52.282;5.960;2023-03-07T14:28:17;5.50;;;1.70;;
77612;SDS011;66777;52.282;5.960;2023-03-07T14:30:55;3.72;;;1.25;;
77612;SDS011;66777;52.282;5.960;2023-03-07T14:33:30;4.85;;;1.55;;
77612;SDS011;66777;52.282;5.960;2023-03-07T14:36:01;3.20;;;1.45;;
77612;SDS011;66777;52.282;5.960;2023-03-07T14:38:30;3.20;;;1.55;;
77612;SDS011;66777;52.282;5.960;2023-03-07T14:41:03;2.97;;;1.33;;
77612;SDS011;66777;52.282;5.960;2023-03-07T14:51:58;2.55;;;1.30;;
77612;SDS011;66777;52.282;5.960;2023-03-07T14:54:28;1.75;;;0.95;;
77612;SDS011;66777;52.282;5.960;2023-03-07T14:56:57;3.20;;;1.80;;
77612;SDS011;66777;52.282;5.960;2023-03-07T14:59:25;5.60;;;1.58;;
77612;SDS011;66777;52.282;5.960;2023-03-07T15:01:51;4.35;;;1.58;;
77612;SDS011;66777;52.282;5.960;2023-03-07T15:04:22;4.97;;;1.45;;
77612;SDS011;66777;52.282;5.960;2023-03-07T15:07:00;2.78;;;1.23;;
77612;SDS011;66777;52.282;5.960;2023-03-07T15:09:29;7.22;;;1.73;;
77612;SDS011;66777;52.282;5.960;2023-03-07T15:12:05;3.53;;;1.33;;
77612;SDS011;66777;52.282;5.960;2023-03-07T15:14:46;3.65;;;1.77;;
77612;SDS011;66777;52.282;5.960;2023-03-07T15:17:24;3.75;;;1.60;;
77612;SDS011;66777;52.282;5.960;2023-03-07T15:19:57;3.50;;;1.30;;
77612;SDS011;66777;52.282;5.960;2023-03-07T15:22:40;5.53;;;2.08;;
77612;SDS011;66777;52.282;5.960;2023-03-07T15:25:16;3.10;;;1.23;;
77612;SDS011;66777;52.282;5.960;2023-03-07T15:27:43;6.10;;;1.60;;
77612;SDS011;66777;52.282;5.960;2023-03-07T15:30:33;3.22;;;1.63;;
77612;SDS011;66777;52.282;5.960;2023-03-07T15:35:43;2.92;;;1.30;;
77612;SDS011;66777;52.282;5.960;2023-03-07T15:38:15;3.20;;;1.33;;
77612;SDS011;66777;52.282;5.960;2023-03-07T15:40:46;4.35;;;1.63;;
77612;SDS011;66777;52.282;5.960;2023-03-07T15:45:41;3.80;;;1.67;;
77612;SDS011;66777;52.282;5.960;2023-03-07T15:50:53;5.40;;;1.45;;
77612;SDS011;66777;52.282;5.960;2023-03-07T15:53:34;4.30;;;1.55;;
77612;SDS011;66777;52.282;5.960;2023-03-07T15:56:03;4.20;;;1.23;;
77612;SDS011;66777;52.282;5.960;2023-03-07T15:58:45;6.13;;;1.75;;
77612;SDS011;66777;52.282;5.960;2023-03-07T16:01:21;3.17;;;1.42;;
77612;SDS011;66777;52.282;5.960;2023-03-07T16:09:11;3.42;;;1.52;;
77612;SDS011;66777;52.282;5.960;2023-03-07T16:11:39;3.78;;;1.75;;
77612;SDS011;66777;52.282;5.960;2023-03-07T16:14:11;2.67;;;1.40;;
77612;SDS011;66777;52.282;5.960;2023-03-07T16:16:45;3.65;;;1.58;;
77612;SDS011;66777;52.282;5.960;2023-03-07T16:19:12;3.92;;;1.63;;
77612;SDS011;66777;52.282;5.960;2023-03-07T16:21:39;4.60;;;2.03;;
77612;SDS011;66777;52.282;5.960;2023-03-07T16:24:05;3.42;;;1.50;;
77612;SDS011;66777;52.282;5.960;2023-03-07T16:26:31;6.03;;;1.88;;
77612;SDS011;66777;52.282;5.960;2023-03-07T16:28:58;4.82;;;1.60;;
77612;SDS011;66777;52.282;5.960;2023-03-07T16:31:25;4.88;;;1.63;;
77612;SDS011;66777;52.282;5.960;2023-03-07T16:33:51;6.55;;;2.33;;
77612;SDS011;66777;52.282;5.960;2023-03-07T16:36:18;4.20;;;2.08;;
77612;SDS011;66777;52.282;5.960;2023-03-07T16:38:44;4.68;;;1.88;;
77612;SDS011;66777;52.282;5.960;2023-03-07T16:41:14;4.45;;;1.88;;
77612;SDS011;66777;52.282;5.960;2023-03-07T16:43:42;5.57;;;1.65;;
77612;SDS011;66777;52.282;5.960;2023-03-07T16:46:10;4.85;;;2.10;;
77612;SDS011;66777;52.282;5.960;2023-03-07T16:48:39;4.82;;;1.80;;
77612;SDS011;66777;52.282;5.960;2023-03-07T16:51:08;5.10;;;2.08;;
77612;SDS011;66777;52.282;5.960;2023-03-07T16:53:41;5.05;;;1.52;;
77612;SDS011;66777;52.282;5.960;2023-03-07T16:56:19;4.57;;;2.13;;
77612;SDS011;66777;52.282;5.960;2023-03-07T16:58:54;6.18;;;2.50;;
77612;SDS011;66777;52.282;5.960;2023-03-07T17:01:21;11.02;;;2.50;;
77612;SDS011;66777;52.282;5.960;2023-03-07T17:03:47;5.15;;;2.33;;
77612;SDS011;66777;52.282;5.960;2023-03-07T17:06:14;5.30;;;2.30;;
77612;SDS011;66777;52.282;5.960;2023-03-07T17:08:41;7.03;;;2.75;;
77612;SDS011;66777;52.282;5.960;2023-03-07T17:11:13;9.80;;;2.47;;
77612;SDS011;66777;52.282;5.960;2023-03-07T17:13:44;5.60;;;2.22;;
77612;SDS011;66777;52.282;5.960;2023-03-07T17:16:12;5.07;;;2.13;;
77612;SDS011;66777;52.282;5.960;2023-03-07T17:18:39;4.65;;;2.08;;
77612;SDS011;66777;52.282;5.960;2023-03-07T17:21:05;4.85;;;2.13;;
77612;SDS011;66777;52.282;5.960;2023-03-07T17:23:33;8.30;;;2.42;;